sensor_id;sensor_type;location;lat;lon;timestamp;pressure;altitude;pressure_sealevel;temperature;humidity
36190;BME280;22232;50.914;13.858;2023-05-03T00:00:42;98761.16;;;8.46;100.00
36190;BME280;22232;50.914;13.858;2023-05-03T00:03:10;98765.44;;;8.47;100.00
36190;BME280;22232;50.914;13.858;2023-05-03T00:05:39;98759.09;;;8.48;100.00
36190;BME280;22232;50.914;13.858;2023-05-03T00:08:07;98765.00;;;8.44;100.00
36190;BME280;22232;50.914;13.858;2023-05-03T00:10:35;98769.25;;;8.38;100.00
36190;BME280;22232;50.914;13.858;2023-05-03T00:13:02;98771.44;;;8.35;100.00
36190;BME280;22232;50.914;13.858;2023-05-03T00:15:30;98775.75;;;8.36;100.00
36190;BME280;22232;50.914;13.858;2023-05-03T00:17:57;98769.59;;;8.35;100.00
36190;BME280;22232;50.914;13.858;2023-05-03T00:20:25;98775.31;;;8.32;100.00
36190;BME280;22232;50.914;13.858;2023-05-03T00:22:52;98773.69;;;8.31;100.00
36190;BME280;22232;50.914;13.858;2023-05-03T00:25:20;98769.25;;;8.38;100.00
36190;BME280;22232;50.914;13.858;2023-05-03T00:27:47;98775.38;;;8.39;100.00
36190;BME280;22232;50.914;13.858;2023-05-03T00:30:15;98768.88;;;8.41;100.00
36190;BME280;22232;50.914;13.858;2023-05-03T00:32:45;98770.94;;;8.46;100.00
36190;BME280;22232;50.914;13.858;2023-05-03T00:35:13;98761.38;;;8.52;100.00
36190;BME280;22232;50.914;13.858;2023-05-03T00:37:40;98765.69;;;8.53;100.00
36190;BME280;22232;50.914;13.858;2023-05-03T00:40:08;98760.38;;;8.53;100.00
36190;BME280;22232;50.914;13.858;2023-05-03T00:42:36;98759.91;;;8.49;100.00
36190;BME280;22232;50.914;13.858;2023-05-03T00:45:04;98757.47;;;8.47;100.00
36190;BME280;22232;50.914;13.858;2023-05-03T00:47:33;98758.28;;;8.48;100.00
36190;BME280;22232;50.914;13.858;2023-05-03T00:50:01;98757.47;;;8.47;100.00
36190;BME280;22232;50.914;13.858;2023-05-03T00:52:29;98757.47;;;8.47;100.00
36190;BME280;22232;50.914;13.858;2023-05-03T00:54:57;98768.09;;;8.47;100.00
36190;BME280;22232;50.914;13.858;2023-05-03T00:57:26;98756.38;;;8.42;100.00
36190;BME280;22232;50.914;13.858;2023-05-03T00:59:55;98763.94;;;8.38;100.00
36190;BME280;22232;50.914;13.858;2023-05-03T01:02:24;98759.16;;;8.34;100.00
36190;BME280;22232;50.914;13.858;2023-05-03T01:04:52;98757.47;;;8.26;100.00
36190;BME280;22232;50.914;13.858;2023-05-03T01:07:47;98761.72;;;8.20;100.00
36190;BME280;22232;50.914;13.858;2023-05-03T01:10:25;98750.66;;;8.17;100.00
36190;BME280;22232;50.914;13.858;2023-05-03T01:14:00;98761.06;;;8.18;100.00
36190;BME280;22232;50.914;13.858;2023-05-03T01:16:08;98762.09;;;8.17;100.00
36190;BME280;22232;50.914;13.858;2023-05-03T01:18:39;98765.72;;;8.10;100.00
36190;BME280;22232;50.914;13.858;2023-05-03T01:21:12;98754.72;;;8.13;100.00
36190;BME280;22232;50.914;13.858;2023-05-03T01:26:29;98755.16;;;7.95;100.00
36190;BME280;22232;50.914;13.858;2023-05-03T01:28:57;98755.34;;;7.93;100.00
36190;BME280;22232;50.914;13.858;2023-05-03T01:31:43;98746.81;;;7.98;100.00
36190;BME280;22232;50.914;13.858;2023-05-03T01:37:01;98746.28;;;7.88;100.00
36190;BME280;22232;50.914;13.858;2023-05-03T01:40:03;98741.44;;;7.91;100.00
36190;BME280;22232;50.914;13.858;2023-05-03T01:42:35;98745.91;;;7.91;100.00
36190;BME280;22232;50.914;13.858;2023-05-03T01:45:05;98748.25;;;7.79;100.00
36190;BME280;22232;50.914;13.858;2023-05-03T01:47:32;98753.81;;;7.84;100.00
36190;BME280;22232;50.914;13.858;2023-05-03T01:50:00;98751.88;;;7.71;100.00
36190;BME280;22232;50.914;13.858;2023-05-03T01:52:28;98746.94;;;7.68;100.00
36190;BME280;22232;50.914;13.858;2023-05-03T01:54:56;98758.38;;;7.69;100.00
36190;BME280;22232;50.914;13.858;2023-05-03T01:57:24;98759.94;;;7.63;100.00
36190;BME280;22232;50.914;13.858;2023-05-03T01:59:51;98751.97;;;7.63;100.00
36190;BME280;22232;50.914;13.858;2023-05-03T02:02:19;98746.22;;;7.59;100.00
36190;BME280;22232;50.914;13.858;2023-05-03T02:04:47;98750.91;;;7.57;100.00
36190;BME280;22232;50.914;13.858;2023-05-03T02:07:14;98750.28;;;7.55;100.00
36190;BME280;22232;50.914;13.858;2023-05-03T02:09:42;98745.53;;;7.51;100.00
36190;BME280;22232;50.914;13.858;2023-05-03T02:12:10;98740.84;;;7.53;100.00
36190;BME280;22232;50.914;13.858;2023-05-03T02:14:37;98748.00;;;7.52;100.00
36190;BME280;22232;50.914;13.858;2023-05-03T02:17:05;98745.97;;;7.54;100.00
36190;BME280;22232;50.914;13.858;2023-05-03T02:19:34;98750.38;;;7.47;100.00
36190;BME280;22232;50.914;13.858;2023-05-03T02:22:02;98743.06;;;7.49;100.00
36190;BME280;22232;50.914;13.858;2023-05-03T02:24:29;98743.88;;;7.50;100.00
36190;BME280;22232;50.914;13.858;2023-05-03T02:26:57;98743.44;;;7.46;100.00
36190;BME280;22232;50.914;13.858;2023-05-03T02:29:25;98733.00;;;7.45;100.00
36190;BME280;22232;50.914;13.858;2023-05-03T02:31:52;98740.91;;;7.38;100.00
36190;BME280;22232;50.914;13.858;2023-05-03T02:34:21;98741.84;;;7.30;100.00
36190;BME280;22232;50.914;13.858;2023-05-03T02:36:50;98745.69;;;7.28;100.00
36190;BME280;22232;50.914;13.858;2023-05-03T02:39:17;98741.13;;;7.22;100.00
36190;BME280;22232;50.914;13.858;2023-05-03T02:41:45;98742.13;;;7.21;100.00
36190;BME280;22232;50.914;13.858;2023-05-03T02:44:13;98744.78;;;7.21;100.00
36190;BME280;22232;50.914;13.858;2023-05-03T02:46:41;98748.81;;;7.17;100.00
36190;BME280;22232;50.914;13.858;2023-05-03T02:49:09;98752.00;;;7.12;100.00
36190;BME280;22232;50.914;13.858;2023-05-03T02:51:36;98753.22;;;7.09;100.00
36190;BME280;22232;50.914;13.858;2023-05-03T02:54:04;98757.59;;;7.02;100.00
36190;BME280;22232;50.914;13.858;2023-05-03T02:56:31;98761.94;;;6.88;100.00
36190;BME280;22232;50.914;13.858;2023-05-03T02:58:59;98762.47;;;6.84;100.00
36190;BME280;22232;50.914;13.858;2023-05-03T03:01:27;98759.91;;;6.76;100.00
36190;BME280;22232;50.914;13.858;2023-05-03T03:03:56;98752.22;;;6.81;100.00
36190;BME280;22232;50.914;13.858;2023-05-03T03:06:24;98764.28;;;6.69;100.00
36190;BME280;22232;50.914;13.858;2023-05-03T03:08:52;98766.94;;;6.69;100.00
36190;BME280;22232;50.914;13.858;2023-05-03T03:11:19;98764.47;;;6.52;100.00
36190;BME280;22232;50.914;13.858;2023-05-03T03:13:47;98766.47;;;6.50;100.00
36190;BME280;22232;50.914;13.858;2023-05-03T03:16:14;98780.06;;;6.47;100.00
36190;BME280;22232;50.914;13.858;2023-05-03T03:18:42;98778.69;;;6.51;100.00
36190;BME280;22232;50.914;13.858;2023-05-03T03:21:09;98778.91;;;6.50;100.00
36190;BME280;22232;50.914;13.858;2023-05-03T03:23:37;98783.28;;;6.42;100.00
36190;BME280;22232;50.914;13.858;2023-05-03T03:26:04;98787.28;;;6.38;100.00
36190;BME280;22232;50.914;13.858;2023-05-03T03:28:33;98790.31;;;6.50;100.00
36190;BME280;22232;50.914;13.858;2023-05-03T03:31:06;98782.47;;;6.57;100.00
36190;BME280;22232;50.914;13.858;2023-05-03T03:33:34;98791.88;;;6.59;100.00
36190;BME280;22232;50.914;13.858;2023-05-03T03:36:08;98803.50;;;6.58;100.00
36190;BME280;22232;50.914;13.858;2023-05-03T03:38:40;98793.66;;;6.67;100.00
36190;BME280;22232;50.914;13.858;2023-05-03T03:41:10;98800.78;;;6.66;100.00
36190;BME280;22232;50.914;13.858;2023-05-03T03:43:38;98798.59;;;6.70;100.00
36190;BME280;22232;50.914;13.858;2023-05-03T03:46:10;98802.41;;;6.68;100.00
36190;BME280;22232;50.914;13.858;2023-05-03T03:48:38;98794.25;;;6.69;100.00
36190;BME280;22232;50.914;13.858;2023-05-03T03:51:06;98798.84;;;6.75;100.00
36190;BME280;22232;50.914;13.858;2023-05-03T03:53:40;98811.25;;;6.60;100.00
36190;BME280;22232;50.914;13.858;2023-05-03T03:56:08;98802.56;;;6.51;100.00
36190;BME280;22232;50.914;13.858;2023-05-03T03:58:36;98814.81;;;6.52;100.00
36190;BME280;22232;50.914;13.858;2023-05-03T04:01:06;98811.25;;;6.60;100.00
36190;BME280;22232;50.914;13.858;2023-05-03T04:03:34;98811.38;;;6.66;100.00
36190;BME280;22232;50.914;13.858;2023-05-03T04:06:01;98814.94;;;6.74;100.00
36190;BME280;22232;50.914;13.858;2023-05-03T04:08:30;98823.72;;;6.74;100.00
36190;BME280;22232;50.914;13.858;2023-05-03T04:10:58;98820.53;;;6.79;100.00
36190;BME280;22232;50.914;13.858;2023-05-03T04:13:25;98825.94;;;6.85;100.00
36190;BME280;22232;50.914;13.858;2023-05-03T04:15:55;98825.13;;;6.85;100.00
36190;BME280;22232;50.914;13.858;2023-05-03T04:18:24;98831.69;;;6.89;100.00
36190;BME280;22232;50.914;13.858;2023-05-03T04:20:54;98835.00;;;6.91;100.00
36190;BME280;22232;50.914;13.858;2023-05-03T04:23:22;98837.81;;;6.89;100.00
36190;BME280;22232;50.914;13.858;2023-05-03T04:25:50;98843.22;;;6.96;100.00
36190;BME280;22232;50.914;13.858;2023-05-03T04:28:18;98849.44;;;7.03;100.00
36190;BME280;22232;50.914;13.858;2023-05-03T04:30:48;98857.56;;;7.02;100.00
36190;BME280;22232;50.914;13.858;2023-05-03T04:33:22;98850.34;;;7.10;100.00
36190;BME280;22232;50.914;13.858;2023-05-03T04:35:52;98858.13;;;7.12;100.00
36190;BME280;22232;50.914;13.858;2023-05-03T04:38:19;98851.47;;;7.16;100.00
36190;BME280;22232;50.914;13.858;2023-05-03T04:40:49;98852.28;;;7.17;100.00
36190;BME280;22232;50.914;13.858;2023-05-03T04:43:17;98866.00;;;7.20;100.00
36190;BME280;22232;50.914;13.858;2023-05-03T04:45:46;98859.88;;;7.20;100.00
36190;BME280;22232;50.914;13.858;2023-05-03T04:48:18;98866.06;;;7.12;100.00
36190;BME280;22232;50.914;13.858;2023-05-03T04:50:46;98871.50;;;7.19;100.00
36190;BME280;22232;50.914;13.858;2023-05-03T04:53:16;98874.25;;;7.25;100.00
36190;BME280;22232;50.914;13.858;2023-05-03T04:55:49;98878.81;;;7.31;100.00
36190;BME280;22232;50.914;13.858;2023-05-03T04:58:17;98875.34;;;7.31;100.00
36190;BME280;22232;50.914;13.858;2023-05-03T05:00:45;98874.97;;;7.34;100.00
36190;BME280;22232;50.914;13.858;2023-05-03T05:03:20;98869.56;;;7.42;100.00
36190;BME280;22232;50.914;13.858;2023-05-03T05:05:49;98877.63;;;7.49;100.00
36190;BME280;22232;50.914;13.858;2023-05-03T05:08:18;98876.97;;;7.62;100.00
36190;BME280;22232;50.914;13.858;2023-05-03T05:10:52;98877.22;;;7.67;100.00
36190;BME280;22232;50.914;13.858;2023-05-03T05:13:23;98884.63;;;7.71;100.00
36190;BME280;22232;50.914;13.858;2023-05-03T05:15:51;98885.91;;;7.75;100.00
36190;BME280;22232;50.914;13.858;2023-05-03T05:18:18;98888.38;;;7.77;100.00
36190;BME280;22232;50.914;13.858;2023-05-03T05:20:47;98892.22;;;7.89;100.00
36190;BME280;22232;50.914;13.858;2023-05-03T05:23:15;98882.91;;;8.00;100.00
36190;BME280;22232;50.914;13.858;2023-05-03T05:25:45;98887.09;;;8.09;100.00
36190;BME280;22232;50.914;13.858;2023-05-03T05:28:13;98892.97;;;8.19;100.00
36190;BME280;22232;50.914;13.858;2023-05-03T05:30:41;98898.84;;;8.36;100.00
36190;BME280;22232;50.914;13.858;2023-05-03T05:33:09;98902.28;;;8.52;100.00
36190;BME280;22232;50.914;13.858;2023-05-03T05:35:37;98899.78;;;8.43;100.00
36190;BME280;22232;50.914;13.858;2023-05-03T05:38:05;98909.72;;;8.56;100.00
36190;BME280;22232;50.914;13.858;2023-05-03T05:40:34;98908.75;;;8.64;100.00
36190;BME280;22232;50.914;13.858;2023-05-03T05:43:01;98913.66;;;8.67;100.00
36190;BME280;22232;50.914;13.858;2023-05-03T05:45:33;98916.22;;;8.75;100.00
36190;BME280;22232;50.914;13.858;2023-05-03T05:48:02;98914.38;;;8.76;100.00
36190;BME280;22232;50.914;13.858;2023-05-03T05:50:32;98919.66;;;8.97;100.00
36190;BME280;22232;50.914;13.858;2023-05-03T05:53:05;98913.78;;;9.02;100.00
36190;BME280;22232;50.914;13.858;2023-05-03T05:55:39;98909.75;;;9.12;100.00
36190;BME280;22232;50.914;13.858;2023-05-03T05:58:07;98914.63;;;9.09;100.00
36190;BME280;22232;50.914;13.858;2023-05-03T06:00:40;98917.69;;;9.06;100.00
36190;BME280;22232;50.914;13.858;2023-05-03T06:03:08;98921.66;;;9.16;100.00
36190;BME280;22232;50.914;13.858;2023-05-03T06:05:36;98923.34;;;9.24;100.00
36190;BME280;22232;50.914;13.858;2023-05-03T06:08:03;98916.38;;;9.58;100.00
36190;BME280;22232;50.914;13.858;2023-05-03T06:10:31;98909.69;;;9.75;100.00
36190;BME280;22232;50.914;13.858;2023-05-03T06:12:59;98911.41;;;9.90;94.40
36190;BME280;22232;50.914;13.858;2023-05-03T06:15:27;98915.94;;;9.96;92.85
36190;BME280;22232;50.914;13.858;2023-05-03T06:17:55;98914.88;;;9.90;86.77
36190;BME280;22232;50.914;13.858;2023-05-03T06:20:22;98917.19;;;10.06;91.97
36190;BME280;22232;50.914;13.858;2023-05-03T06:22:51;98923.56;;;10.05;88.14
36190;BME280;22232;50.914;13.858;2023-05-03T06:25:19;98926.19;;;9.92;87.31
36190;BME280;22232;50.914;13.858;2023-05-03T06:27:49;98918.63;;;10.02;90.55
36190;BME280;22232;50.914;13.858;2023-05-03T06:30:20;98926.09;;;9.72;90.32
36190;BME280;22232;50.914;13.858;2023-05-03T06:32:49;98921.31;;;10.09;91.88
36190;BME280;22232;50.914;13.858;2023-05-03T06:35:17;98920.63;;;10.42;88.50
36190;BME280;22232;50.914;13.858;2023-05-03T06:37:46;98926.41;;;10.92;84.77
36190;BME280;22232;50.914;13.858;2023-05-03T06:40:14;98926.22;;;10.93;84.48
36190;BME280;22232;50.914;13.858;2023-05-03T06:42:42;98927.03;;;10.87;78.92
36190;BME280;22232;50.914;13.858;2023-05-03T06:45:19;98931.53;;;10.80;85.31
36190;BME280;22232;50.914;13.858;2023-05-03T06:47:46;98924.13;;;11.35;84.87
36190;BME280;22232;50.914;13.858;2023-05-03T06:50:16;98927.50;;;11.76;74.85
36190;BME280;22232;50.914;13.858;2023-05-03T06:52:46;98924.19;;;11.93;75.42
36190;BME280;22232;50.914;13.858;2023-05-03T06:55:15;98923.78;;;12.35;69.19
36190;BME280;22232;50.914;13.858;2023-05-03T06:57:42;98931.47;;;12.56;68.22
36190;BME280;22232;50.914;13.858;2023-05-03T07:00:10;98925.44;;;12.93;69.59
36190;BME280;22232;50.914;13.858;2023-05-03T07:02:38;98920.91;;;13.62;64.46
36190;BME280;22232;50.914;13.858;2023-05-03T07:05:06;98924.03;;;13.95;56.10
36190;BME280;22232;50.914;13.858;2023-05-03T07:07:34;98927.81;;;13.51;57.92
36190;BME280;22232;50.914;13.858;2023-05-03T07:10:02;98920.19;;;12.54;65.93
36190;BME280;22232;50.914;13.858;2023-05-03T07:12:30;98924.59;;;13.17;63.20
36190;BME280;22232;50.914;13.858;2023-05-03T07:14:58;98911.94;;;14.05;67.82
36190;BME280;22232;50.914;13.858;2023-05-03T07:17:25;98912.47;;;14.74;63.09
36190;BME280;22232;50.914;13.858;2023-05-03T07:19:53;98907.31;;;14.72;59.76
36190;BME280;22232;50.914;13.858;2023-05-03T07:22:21;98918.88;;;13.57;55.27
36190;BME280;22232;50.914;13.858;2023-05-03T07:24:51;98913.28;;;14.14;55.07
36190;BME280;22232;50.914;13.858;2023-05-03T07:27:21;98914.63;;;14.53;51.35
36190;BME280;22232;50.914;13.858;2023-05-03T07:29:48;98908.78;;;15.22;54.54
36190;BME280;22232;50.914;13.858;2023-05-03T07:32:16;98912.97;;;15.41;51.35
36190;BME280;22232;50.914;13.858;2023-05-03T07:34:44;98905.84;;;15.23;51.43
36190;BME280;22232;50.914;13.858;2023-05-03T07:37:11;98907.59;;;15.29;50.82
36190;BME280;22232;50.914;13.858;2023-05-03T07:39:39;98910.16;;;15.59;50.11
36190;BME280;22232;50.914;13.858;2023-05-03T07:42:07;98909.25;;;16.06;51.48
36190;BME280;22232;50.914;13.858;2023-05-03T07:44:35;98913.53;;;16.47;49.99
36190;BME280;22232;50.914;13.858;2023-05-03T07:47:02;98910.41;;;15.34;48.27
36190;BME280;22232;50.914;13.858;2023-05-03T07:49:30;98906.31;;;15.08;50.73
36190;BME280;22232;50.914;13.858;2023-05-03T07:52:01;98904.56;;;15.14;52.89
36190;BME280;22232;50.914;13.858;2023-05-03T07:54:29;98904.81;;;15.12;51.03
36190;BME280;22232;50.914;13.858;2023-05-03T07:56:56;98909.34;;;15.35;50.23
36190;BME280;22232;50.914;13.858;2023-05-03T07:59:24;98908.03;;;14.91;50.33
36190;BME280;22232;50.914;13.858;2023-05-03T08:01:51;98922.25;;;13.02;52.77
36190;BME280;22232;50.914;13.858;2023-05-03T08:04:19;98917.06;;;13.32;54.45
36190;BME280;22232;50.914;13.858;2023-05-03T08:06:47;98918.22;;;12.36;58.83
36190;BME280;22232;50.914;13.858;2023-05-03T08:09:16;98912.00;;;12.74;58.68
36190;BME280;22232;50.914;13.858;2023-05-03T08:11:43;98909.31;;;12.04;55.89
36190;BME280;22232;50.914;13.858;2023-05-03T08:14:11;98914.34;;;11.74;59.37
36190;BME280;22232;50.914;13.858;2023-05-03T08:16:39;98909.81;;;11.75;60.42
36190;BME280;22232;50.914;13.858;2023-05-03T08:19:06;98903.88;;;12.24;57.34
36190;BME280;22232;50.914;13.858;2023-05-03T08:21:34;98909.66;;;13.09;56.89
36190;BME280;22232;50.914;13.858;2023-05-03T08:24:01;98901.16;;;13.38;56.50
36190;BME280;22232;50.914;13.858;2023-05-03T08:26:32;98894.28;;;13.67;57.93
36190;BME280;22232;50.914;13.858;2023-05-03T08:29:00;98890.34;;;14.60;51.25
36190;BME280;22232;50.914;13.858;2023-05-03T08:31:29;98900.13;;;14.24;54.74
36190;BME280;22232;50.914;13.858;2023-05-03T08:33:57;98902.00;;;13.57;51.81
36190;BME280;22232;50.914;13.858;2023-05-03T08:36:25;98896.94;;;13.85;53.88
36190;BME280;22232;50.914;13.858;2023-05-03T08:38:52;98906.72;;;12.29;54.29
36190;BME280;22232;50.914;13.858;2023-05-03T08:41:27;98904.63;;;12.70;59.81
36190;BME280;22232;50.914;13.858;2023-05-03T08:43:58;98902.13;;;13.00;55.12
36190;BME280;22232;50.914;13.858;2023-05-03T08:46:27;98907.00;;;11.56;59.86
36190;BME280;22232;50.914;13.858;2023-05-03T08:48:55;98906.56;;;11.73;63.51
36190;BME280;22232;50.914;13.858;2023-05-03T08:51:23;98918.66;;;12.90;59.05
36190;BME280;22232;50.914;13.858;2023-05-03T08:53:51;98911.00;;;13.44;54.07
36190;BME280;22232;50.914;13.858;2023-05-03T08:56:31;98908.47;;;14.64;49.51
36190;BME280;22232;50.914;13.858;2023-05-03T08:58:59;98893.53;;;14.38;53.79
36190;BME280;22232;50.914;13.858;2023-05-03T09:01:35;98905.16;;;14.02;49.69
36190;BME280;22232;50.914;13.858;2023-05-03T09:04:03;98915.75;;;13.17;49.62
36190;BME280;22232;50.914;13.858;2023-05-03T09:06:32;98913.91;;;12.67;54.15
36190;BME280;22232;50.914;13.858;2023-05-03T09:09:02;98918.75;;;12.13;54.97
36190;BME280;22232;50.914;13.858;2023-05-03T09:11:34;98911.97;;;12.49;56.64
36190;BME280;22232;50.914;13.858;2023-05-03T09:14:13;98915.47;;;12.81;53.78
36190;BME280;22232;50.914;13.858;2023-05-03T09:16:43;98913.53;;;13.14;52.54
36190;BME280;22232;50.914;13.858;2023-05-03T09:19:12;98916.44;;;13.12;52.72
36190;BME280;22232;50.914;13.858;2023-05-03T09:21:42;98922.84;;;13.36;49.13
36190;BME280;22232;50.914;13.858;2023-05-03T09:24:18;98918.94;;;13.32;48.33
36190;BME280;22232;50.914;13.858;2023-05-03T09:26:50;98920.09;;;13.18;50.15
36190;BME280;22232;50.914;13.858;2023-05-03T09:29:36;98913.00;;;13.30;50.79
36190;BME280;22232;50.914;13.858;2023-05-03T09:32:04;98910.94;;;13.50;48.56
36190;BME280;22232;50.914;13.858;2023-05-03T09:34:33;98915.19;;;13.40;52.18
36190;BME280;22232;50.914;13.858;2023-05-03T09:37:01;98906.69;;;13.98;52.29
36190;BME280;22232;50.914;13.858;2023-05-03T09:39:29;98909.63;;;14.08;50.97
36190;BME280;22232;50.914;13.858;2023-05-03T09:41:57;98905.88;;;13.61;50.43
36190;BME280;22232;50.914;13.858;2023-05-03T09:44:42;98909.03;;;14.55;51.14
36190;BME280;22232;50.914;13.858;2023-05-03T09:47:10;98894.72;;;15.55;50.42
36190;BME280;22232;50.914;13.858;2023-05-03T09:49:38;98891.41;;;16.45;49.48
36190;BME280;22232;50.914;13.858;2023-05-03T09:52:06;98893.28;;;16.90;46.85
36190;BME280;22232;50.914;13.858;2023-05-03T09:54:34;98893.53;;;17.23;44.93
36190;BME280;22232;50.914;13.858;2023-05-03T09:57:03;98895.78;;;15.30;43.66
36190;BME280;22232;50.914;13.858;2023-05-03T09:59:33;98895.50;;;14.31;45.80
36190;BME280;22232;50.914;13.858;2023-05-03T10:02:03;98900.91;;;13.21;48.99
36190;BME280;22232;50.914;13.858;2023-05-03T10:04:42;98899.16;;;13.08;52.22
36190;BME280;22232;50.914;13.858;2023-05-03T10:07:16;98901.72;;;13.21;50.79
36190;BME280;22232;50.914;13.858;2023-05-03T10:09:46;98899.75;;;13.35;51.32
36190;BME280;22232;50.914;13.858;2023-05-03T10:12:14;98886.22;;;13.67;51.28
36190;BME280;22232;50.914;13.858;2023-05-03T10:14:46;98876.50;;;13.84;51.92
36190;BME280;22232;50.914;13.858;2023-05-03T10:17:27;98874.59;;;13.91;52.06
36190;BME280;22232;50.914;13.858;2023-05-03T10:23:12;98876.28;;;15.00;49.43
36190;BME280;22232;50.914;13.858;2023-05-03T10:28:39;98868.00;;;14.89;51.51
36190;BME280;22232;50.914;13.858;2023-05-03T10:31:46;98874.22;;;14.18;49.13
36190;BME280;22232;50.914;13.858;2023-05-03T10:34:24;98880.38;;;14.07;48.09
36190;BME280;22232;50.914;13.858;2023-05-03T10:36:52;98879.22;;;13.66;48.91
36190;BME280;22232;50.914;13.858;2023-05-03T10:39:20;98867.16;;;14.65;49.37
36190;BME280;22232;50.914;13.858;2023-05-03T10:41:58;98862.56;;;15.72;47.89
36190;BME280;22232;50.914;13.858;2023-05-03T10:44:28;98864.38;;;15.31;46.63
36190;BME280;22232;50.914;13.858;2023-05-03T10:46:56;98864.56;;;15.76;45.44
36190;BME280;22232;50.914;13.858;2023-05-03T10:49:23;98869.56;;;16.13;46.52
36190;BME280;22232;50.914;13.858;2023-05-03T10:51:52;98867.53;;;16.20;43.99
36190;BME280;22232;50.914;13.858;2023-05-03T10:54:20;98865.50;;;16.27;45.37
36190;BME280;22232;50.914;13.858;2023-05-03T10:56:52;98862.84;;;14.34;45.86
36190;BME280;22232;50.914;13.858;2023-05-03T10:59:21;98865.28;;;13.94;48.53
36190;BME280;22232;50.914;13.858;2023-05-03T11:01:50;98866.25;;;13.63;49.12
36190;BME280;22232;50.914;13.858;2023-05-03T11:04:32;98858.72;;;14.20;49.73
36190;BME280;22232;50.914;13.858;2023-05-03T11:07:02;98863.81;;;14.40;48.21
36190;BME280;22232;50.914;13.858;2023-05-03T11:09:32;98862.84;;;14.64;46.50
36190;BME280;22232;50.914;13.858;2023-05-03T11:12:06;98872.44;;;14.12;46.61
36190;BME280;22232;50.914;13.858;2023-05-03T11:14:34;98861.53;;;13.95;50.14
36190;BME280;22232;50.914;13.858;2023-05-03T11:17:02;98864.31;;;14.60;48.28
36190;BME280;22232;50.914;13.858;2023-05-03T11:19:30;98857.38;;;15.06;46.92
36190;BME280;22232;50.914;13.858;2023-05-03T11:21:58;98866.09;;;14.78;46.18
36190;BME280;22232;50.914;13.858;2023-05-03T11:24:26;98859.31;;;14.76;46.19
36190;BME280;22232;50.914;13.858;2023-05-03T11:26:53;98857.78;;;14.56;47.87
36190;BME280;22232;50.914;13.858;2023-05-03T11:29:23;98862.25;;;14.02;49.01
36190;BME280;22232;50.914;13.858;2023-05-03T11:31:51;98849.44;;;13.56;51.18
36190;BME280;22232;50.914;13.858;2023-05-03T11:34:18;98862.41;;;14.49;50.23
36190;BME280;22232;50.914;13.858;2023-05-03T11:36:46;98860.47;;;14.26;47.54
36190;BME280;22232;50.914;13.858;2023-05-03T11:39:13;98852.56;;;13.52;48.14
36190;BME280;22232;50.914;13.858;2023-05-03T11:41:43;98865.09;;;12.90;49.03
36190;BME280;22232;50.914;13.858;2023-05-03T11:44:10;98855.00;;;12.92;50.82
36190;BME280;22232;50.914;13.858;2023-05-03T11:46:45;98850.00;;;13.21;49.87
36190;BME280;22232;50.914;13.858;2023-05-03T11:49:17;98843.78;;;13.64;50.40
36190;BME280;22232;50.914;13.858;2023-05-03T11:51:46;98849.22;;;14.48;50.60
36190;BME280;22232;50.914;13.858;2023-05-03T11:54:20;98852.66;;;14.25;48.36
36190;BME280;22232;50.914;13.858;2023-05-03T11:56:57;98857.94;;;14.31;46.59
36190;BME280;22232;50.914;13.858;2023-05-03T11:59:33;98858.28;;;14.65;47.86
36190;BME280;22232;50.914;13.858;2023-05-03T12:02:01;98855.97;;;14.08;47.74
36190;BME280;22232;50.914;13.858;2023-05-03T12:04:30;98858.38;;;14.58;50.47
36190;BME280;22232;50.914;13.858;2023-05-03T12:06:59;98858.59;;;13.85;47.49
36190;BME280;22232;50.914;13.858;2023-05-03T12:09:29;98865.69;;;13.42;48.38
36190;BME280;22232;50.914;13.858;2023-05-03T12:11:58;98849.88;;;13.71;48.51
36190;BME280;22232;50.914;13.858;2023-05-03T12:14:55;98849.69;;;14.44;48.85
36190;BME280;22232;50.914;13.858;2023-05-03T12:17:38;98847.41;;;14.60;48.01
36190;BME280;22232;50.914;13.858;2023-05-03T12:20:21;98846.16;;;14.02;48.17
36190;BME280;22232;50.914;13.858;2023-05-03T12:22:53;98843.88;;;13.87;48.25
36190;BME280;22232;50.914;13.858;2023-05-03T12:25:25;98844.44;;;14.08;47.33
36190;BME280;22232;50.914;13.858;2023-05-03T12:28:03;98848.09;;;13.65;49.06
36190;BME280;22232;50.914;13.858;2023-05-03T12:30:34;98842.81;;;14.49;48.93
36190;BME280;22232;50.914;13.858;2023-05-03T12:33:01;98836.69;;;15.07;48.12
36190;BME280;22232;50.914;13.858;2023-05-03T12:35:31;98831.06;;;15.08;49.29
36190;BME280;22232;50.914;13.858;2023-05-03T12:38:01;98834.59;;;15.61;48.67
36190;BME280;22232;50.914;13.858;2023-05-03T12:40:30;98834.09;;;15.12;45.31
36190;BME280;22232;50.914;13.858;2023-05-03T12:43:02;98829.13;;;15.79;45.41
36190;BME280;22232;50.914;13.858;2023-05-03T12:45:29;98832.56;;;15.92;43.71
36190;BME280;22232;50.914;13.858;2023-05-03T12:48:01;98816.63;;;16.19;44.01
36190;BME280;22232;50.914;13.858;2023-05-03T12:50:29;98817.28;;;16.09;46.01
36190;BME280;22232;50.914;13.858;2023-05-03T12:52:58;98816.16;;;16.22;45.03
36190;BME280;22232;50.914;13.858;2023-05-03T12:55:29;98809.72;;;15.54;45.24
36190;BME280;22232;50.914;13.858;2023-05-03T12:58:08;98816.38;;;14.87;45.74
36190;BME280;22232;50.914;13.858;2023-05-03T13:00:38;98809.84;;;14.83;46.45
36190;BME280;22232;50.914;13.858;2023-05-03T13:03:26;98808.84;;;15.36;47.52
36190;BME280;22232;50.914;13.858;2023-05-03T13:06:00;98807.97;;;15.59;45.33
36190;BME280;22232;50.914;13.858;2023-05-03T13:08:38;98802.75;;;15.41;46.14
36190;BME280;22232;50.914;13.858;2023-05-03T13:11:15;98807.63;;;15.56;45.41
36190;BME280;22232;50.914;13.858;2023-05-03T13:13:45;98803.47;;;15.36;44.83
36190;BME280;22232;50.914;13.858;2023-05-03T13:16:13;98808.72;;;14.49;46.81